createdAt,value
2022-11-10T00:01:49.183Z,86.30
2022-11-10T00:05:13.422Z,85.60
2022-11-10T00:08:34.763Z,86.30
2022-11-10T00:11:55.234Z,85.90
2022-11-10T00:15:15.804Z,86.50
2022-11-10T00:18:36.545Z,86.50
2022-11-10T00:21:59.906Z,86.40
2022-11-10T00:25:20.817Z,86.60
2022-11-10T00:28:41.824Z,87.20
2022-11-10T00:32:05.036Z,87.50
2022-11-10T00:35:25.886Z,87.70
2022-11-10T00:38:46.466Z,88.00
2022-11-10T00:42:06.880Z,87.90
2022-11-10T00:45:27.617Z,88.40
2022-11-10T00:48:48.200Z,88.40
2022-11-10T00:52:08.735Z,88.40
2022-11-10T00:55:29.462Z,88.30
2022-11-10T00:58:49.909Z,88.40
2022-11-10T01:02:10.219Z,88.40
2022-11-10T01:05:31.158Z,88.40
2022-11-10T01:08:51.732Z,88.60
2022-11-10T01:12:14.658Z,88.70
2022-11-10T01:15:38.338Z,88.90
2022-11-10T01:19:01.232Z,88.60
2022-11-10T01:22:22.072Z,88.60
2022-11-10T01:25:44.703Z,88.60
2022-11-10T01:29:05.458Z,89.00
2022-11-10T01:32:25.984Z,88.70
2022-11-10T01:35:46.796Z,88.50
2022-11-10T01:39:07.430Z,88.60
2022-11-10T01:42:38.244Z,88.60
2022-11-10T01:46:09.606Z,88.60
2022-11-10T01:49:32.747Z,88.50
2022-11-10T01:52:59.940Z,88.40
2022-11-10T01:56:22.332Z,88.50
2022-11-10T01:59:46.434Z,88.70
2022-11-10T02:03:13.316Z,88.70
2022-11-10T02:06:36.012Z,88.50
2022-11-10T02:09:56.831Z,88.40
2022-11-10T02:13:17.365Z,88.60
2022-11-10T02:16:37.924Z,88.60
2022-11-10T02:20:04.156Z,88.60
2022-11-10T02:23:30.552Z,88.50
2022-11-10T02:26:53.381Z,87.90
2022-11-10T02:30:14.175Z,88.20
2022-11-10T02:33:34.884Z,88.10
2022-11-10T02:36:55.342Z,88.00
2022-11-10T02:40:16.292Z,89.20
2022-11-10T02:43:38.027Z,89.20
2022-11-10T02:46:58.224Z,89.00
2022-11-10T02:50:18.949Z,88.60
2022-11-10T02:53:39.281Z,88.80
2022-11-10T02:56:59.685Z,88.80
2022-11-10T03:00:20.078Z,88.70
2022-11-10T03:03:40.735Z,88.50
2022-11-10T03:07:01.184Z,88.20
2022-11-10T03:10:22.088Z,88.30
2022-11-10T03:14:00.354Z,88.30
2022-11-10T03:17:23.754Z,88.60
2022-11-10T03:20:47.825Z,88.60
2022-11-10T03:24:08.614Z,88.60
2022-11-10T03:27:29.127Z,88.80
2022-11-10T03:30:49.620Z,88.80
2022-11-10T03:34:10.168Z,88.70
2022-11-10T03:37:30.638Z,88.80
2022-11-10T03:41:17.550Z,89.00
2022-11-10T03:44:32.002Z,88.60
2022-11-10T03:47:52.871Z,88.60
2022-11-10T03:51:13.509Z,89.00
2022-11-10T03:54:33.880Z,89.20
2022-11-10T03:57:54.353Z,88.90
2022-11-10T04:01:14.984Z,88.50
2022-11-10T04:04:35.364Z,88.50
2022-11-10T04:08:00.756Z,88.70
2022-11-10T04:11:21.984Z,88.20
2022-11-10T04:14:42.785Z,88.70
2022-11-10T04:18:03.352Z,88.50
2022-11-10T04:21:23.832Z,88.70
2022-11-10T04:24:44.203Z,88.50
2022-11-10T04:28:04.670Z,88.80
2022-11-10T04:31:27.752Z,89.10
2022-11-10T04:34:48.629Z,89.00
2022-11-10T04:38:09.079Z,88.90
2022-11-10T04:41:30.554Z,88.70
2022-11-10T04:44:51.100Z,88.80
2022-11-10T04:48:11.392Z,88.90
2022-11-10T04:51:34.963Z,88.80
2022-11-10T04:54:55.337Z,88.90
2022-11-10T04:58:15.904Z,88.80
2022-11-10T05:01:36.471Z,88.50
2022-11-10T05:04:57.042Z,88.70
2022-11-10T05:08:17.318Z,88.50
2022-11-10T05:11:37.770Z,88.70
2022-11-10T05:14:58.317Z,88.60
2022-11-10T05:18:19.055Z,88.60
2022-11-10T05:21:39.733Z,88.40
2022-11-10T05:25:00.182Z,88.30
2022-11-10T05:28:20.934Z,88.80
2022-11-10T05:31:41.500Z,88.90
2022-11-10T05:35:02.313Z,88.70
2022-11-10T05:38:22.875Z,88.80
2022-11-10T05:41:43.381Z,88.30
2022-11-10T05:45:04.245Z,88.70
2022-11-10T05:48:24.850Z,88.60
2022-11-10T05:51:45.242Z,88.60
2022-11-10T05:55:05.975Z,88.20
2022-11-10T05:58:26.933Z,88.30
2022-11-10T06:01:47.394Z,87.80
2022-11-10T06:05:08.716Z,87.90
2022-11-10T06:08:29.234Z,88.20
2022-11-10T06:11:49.892Z,88.20
2022-11-10T06:15:10.746Z,88.20
2022-11-10T06:18:31.347Z,88.40
2022-11-10T06:21:57.050Z,88.30
2022-11-10T06:25:21.405Z,88.30
2022-11-10T06:28:41.984Z,88.40
2022-11-10T06:32:02.460Z,88.40
2022-11-10T06:35:23.866Z,88.30
2022-11-10T06:38:45.020Z,88.00
2022-11-10T06:42:05.340Z,88.50
2022-11-10T06:45:26.440Z,87.80
2022-11-10T06:48:46.545Z,87.80
2022-11-10T06:52:07.045Z,88.10
2022-11-10T06:55:28.525Z,88.10
2022-11-10T06:58:49.466Z,87.60
2022-11-10T07:02:14.934Z,87.90
2022-11-10T07:05:36.954Z,87.90
2022-11-10T07:08:58.823Z,88.20
2022-11-10T07:12:19.720Z,88.10
2022-11-10T07:15:41.146Z,88.10
2022-11-10T07:19:01.942Z,88.30
2022-11-10T07:22:22.350Z,88.00
2022-11-10T07:25:43.688Z,87.90
2022-11-10T07:29:04.432Z,88.10
2022-11-10T07:32:26.022Z,88.00
2022-11-10T07:35:59.238Z,87.40
2022-11-10T07:39:20.146Z,86.40
2022-11-10T07:42:41.359Z,85.20
2022-11-10T07:46:02.616Z,83.80
2022-11-10T07:49:26.232Z,79.70
2022-11-10T07:52:46.396Z,76.50
2022-11-10T07:56:07.429Z,73.80
2022-11-10T07:59:28.015Z,72.40
2022-11-10T08:02:48.529Z,70.80
2022-11-10T08:06:08.981Z,70.90
2022-11-10T08:09:29.495Z,73.20
2022-11-10T08:13:09.970Z,75.20
2022-11-10T08:16:30.121Z,74.50
2022-11-10T08:19:50.656Z,74.70
2022-11-10T08:23:11.747Z,76.50
2022-11-10T08:26:32.446Z,76.00
2022-11-10T08:29:52.877Z,77.40
2022-11-10T08:33:14.857Z,77.80
2022-11-10T08:36:35.115Z,78.90
2022-11-10T08:39:55.509Z,77.50
2022-11-10T08:43:17.292Z,76.80
2022-11-10T08:46:38.111Z,77.40
2022-11-10T08:49:58.553Z,76.90
2022-11-10T08:53:22.238Z,77.10
2022-11-10T08:56:43.407Z,75.90
2022-11-10T09:00:04.570Z,75.40
2022-11-10T09:03:25.901Z,75.90
2022-11-10T09:06:46.700Z,74.00
2022-11-10T09:10:08.030Z,72.40
2022-11-10T09:13:30.473Z,70.40
2022-11-10T09:16:50.903Z,65.70
2022-11-10T09:20:12.145Z,63.70
2022-11-10T09:23:32.594Z,62.50
2022-11-10T09:26:53.318Z,63.60
2022-11-10T09:30:17.599Z,62.70
2022-11-10T09:33:38.563Z,64.70
2022-11-10T09:37:01.338Z,64.20
2022-11-10T09:40:25.328Z,65.40
2022-11-10T09:44:23.240Z,66.00
2022-11-10T09:47:57.832Z,67.40
2022-11-10T09:51:29.364Z,69.00
2022-11-10T09:54:58.646Z,69.10
2022-11-10T09:58:23.418Z,70.70
2022-11-10T10:01:47.374Z,70.40
2022-11-10T10:05:13.636Z,69.30
2022-11-10T10:08:55.142Z,67.80
2022-11-10T10:12:20.197Z,68.20
2022-11-10T10:16:06.310Z,66.60
2022-11-10T10:19:36.115Z,67.30
2022-11-10T10:23:40.471Z,67.40
2022-11-10T10:27:07.010Z,69.50
2022-11-10T10:30:27.619Z,68.60
2022-11-10T10:33:48.607Z,67.90
2022-11-10T10:37:27.437Z,69.70
2022-11-10T10:40:50.701Z,69.00
2022-11-10T10:44:21.781Z,67.60
2022-11-10T10:47:43.027Z,67.60
2022-11-10T10:51:03.499Z,68.40
2022-11-10T10:54:25.904Z,67.70
2022-11-10T10:58:00.517Z,67.70
2022-11-10T11:01:25.506Z,68.10
2022-11-10T11:04:46.310Z,68.10
2022-11-10T11:08:17.225Z,67.60
2022-11-10T11:11:39.991Z,68.40
2022-11-10T11:15:28.568Z,67.60
2022-11-10T11:18:49.142Z,66.10
2022-11-10T11:22:25.016Z,67.70
2022-11-10T11:25:47.904Z,67.40
2022-11-10T11:29:33.066Z,68.00
2022-11-10T11:33:27.185Z,68.70
2022-11-10T11:36:59.261Z,67.40
2022-11-10T11:40:43.941Z,67.10
2022-11-10T11:44:19.693Z,66.30
2022-11-10T11:48:06.691Z,68.00
2022-11-10T12:03:34.135Z,67.40
2022-11-10T12:07:08.751Z,67.60
2022-11-10T12:10:41.917Z,68.30
2022-11-10T12:14:25.530Z,67.50
2022-11-10T12:18:04.302Z,66.50
2022-11-10T12:21:30.469Z,65.00
2022-11-10T12:25:08.606Z,65.90
2022-11-10T12:28:35.442Z,64.60
2022-11-10T12:32:03.559Z,63.80
2022-11-10T12:35:35.644Z,65.30
2022-11-10T12:38:59.851Z,64.20
2022-11-10T12:42:28.181Z,64.80
2022-11-10T12:46:02.153Z,64.30
2022-11-10T12:49:31.045Z,65.40
2022-11-10T12:53:24.882Z,65.40
2022-11-10T12:56:38.640Z,63.90
2022-11-10T13:00:04.401Z,64.70
2022-11-10T13:03:34.842Z,64.70
2022-11-10T13:07:08.831Z,64.50
2022-11-10T13:10:32.969Z,65.20
2022-11-10T13:13:59.265Z,62.80
2022-11-10T13:17:29.197Z,63.00
2022-11-10T13:20:52.413Z,62.70
2022-11-10T13:24:28.315Z,62.30
2022-11-10T13:27:51.770Z,64.70
2022-11-10T13:31:30.702Z,64.20
2022-11-10T13:34:51.495Z,65.70
2022-11-10T13:38:32.461Z,65.80
2022-11-10T13:42:00.185Z,65.90
2022-11-10T13:45:32.157Z,64.90
2022-11-10T13:49:02.258Z,66.90
2022-11-10T13:52:34.493Z,65.10
2022-11-10T13:56:32.570Z,66.90
2022-11-10T13:59:57.072Z,66.80
2022-11-10T14:03:46.987Z,65.40
2022-11-10T14:07:17.603Z,67.60
2022-11-10T14:10:54.969Z,68.00
2022-11-10T14:14:39.731Z,66.80
2022-11-10T14:18:01.207Z,67.30
2022-11-10T14:21:38.345Z,67.90
2022-11-10T14:25:06.630Z,68.90
2022-11-10T14:28:28.989Z,69.70
2022-11-10T14:31:49.363Z,69.00
2022-11-10T14:35:28.163Z,69.90
2022-11-10T14:38:50.759Z,70.80
2022-11-10T14:42:18.706Z,71.10
2022-11-10T14:45:50.721Z,68.90
2022-11-10T14:49:11.487Z,71.90
2022-11-10T14:52:31.812Z,71.40
2022-11-10T14:55:54.956Z,70.00
2022-11-10T14:59:17.006Z,70.00
2022-11-10T15:02:39.792Z,70.20
2022-11-10T15:06:02.232Z,70.80
2022-11-10T15:09:31.558Z,72.70
2022-11-10T15:13:00.313Z,73.70
2022-11-10T15:16:23.181Z,74.60
2022-11-10T15:19:46.741Z,73.80
2022-11-10T15:23:21.866Z,74.50
2022-11-10T15:26:42.538Z,74.90
2022-11-10T15:30:19.841Z,74.50
2022-11-10T15:33:46.389Z,74.40
2022-11-10T15:37:30.547Z,75.00
2022-11-10T15:40:53.233Z,74.50
2022-11-10T15:44:22.077Z,72.50
2022-11-10T15:47:42.739Z,74.30
2022-11-10T15:51:05.332Z,76.50
2022-11-10T15:54:29.296Z,75.40
2022-11-10T15:57:49.969Z,77.50
2022-11-10T16:01:15.080Z,79.10
2022-11-10T16:04:35.491Z,79.40
2022-11-10T16:07:55.974Z,79.50
2022-11-10T16:11:17.672Z,80.30
2022-11-10T16:14:42.203Z,80.50
2022-11-10T16:18:02.811Z,80.90
2022-11-10T16:21:25.332Z,81.70
2022-11-10T16:24:46.386Z,82.10
2022-11-10T16:28:07.453Z,82.60
2022-11-10T16:31:28.049Z,83.30
2022-11-10T16:34:36.085Z,83.40
2022-11-10T16:37:58.853Z,83.70
2022-11-10T16:41:19.224Z,83.70
2022-11-10T16:44:42.784Z,83.60
2022-11-10T16:48:06.787Z,84.30
2022-11-10T16:51:48.350Z,84.80
2022-11-10T16:55:12.562Z,84.00
2022-11-10T16:58:32.973Z,84.10
2022-11-10T17:01:53.734Z,83.30
2022-11-10T17:05:15.243Z,83.10
2022-11-10T17:08:36.273Z,83.50
2022-11-10T17:11:57.118Z,83.30
2022-11-10T17:15:18.052Z,83.50
2022-11-10T17:18:38.918Z,83.60
2022-11-10T17:21:59.169Z,83.90
2022-11-10T17:25:26.283Z,83.60
2022-11-10T17:28:46.804Z,83.50
2022-11-10T17:32:07.209Z,83.60
2022-11-10T17:35:27.650Z,83.70
2022-11-10T17:38:48.680Z,83.90
2022-11-10T17:42:13.110Z,84.00
2022-11-10T17:45:33.510Z,84.00
2022-11-10T17:48:54.724Z,83.90
2022-11-10T17:52:18.349Z,83.90
2022-11-10T17:55:41.351Z,84.00
2022-11-10T17:59:01.753Z,84.00
2022-11-10T18:05:49.136Z,84.30
2022-11-10T18:09:09.944Z,84.30
2022-11-10T18:12:30.489Z,84.20
2022-11-10T18:15:51.325Z,84.60
2022-11-10T18:19:12.137Z,84.30
2022-11-10T18:22:32.645Z,84.50
2022-11-10T18:25:53.560Z,84.30
2022-11-10T18:29:14.120Z,85.40
2022-11-10T18:32:34.627Z,85.30
2022-11-10T18:35:59.185Z,84.70
2022-11-10T18:39:20.122Z,85.30
2022-11-10T18:42:40.633Z,86.00
2022-11-10T18:46:01.302Z,86.40
2022-11-10T18:49:22.178Z,86.60
2022-11-10T18:52:43.460Z,86.30
2022-11-10T18:56:04.777Z,85.30
2022-11-10T18:59:25.206Z,85.20
2022-11-10T19:02:45.678Z,85.60
2022-11-10T19:06:06.744Z,85.10
2022-11-10T19:09:27.385Z,84.80
2022-11-10T19:12:47.968Z,84.30
2022-11-10T19:16:14.712Z,84.40
2022-11-10T19:19:35.310Z,84.50
2022-11-10T19:22:56.112Z,84.20
2022-11-10T19:26:22.723Z,84.20
2022-11-10T19:29:44.249Z,84.10
2022-11-10T19:33:05.159Z,84.40
2022-11-10T19:36:28.002Z,84.80
2022-11-10T19:39:48.567Z,84.50
2022-11-10T19:43:09.430Z,84.50
2022-11-10T19:46:31.146Z,84.10
2022-11-10T19:49:51.611Z,84.50
2022-11-10T19:53:12.537Z,84.40
2022-11-10T19:56:33.237Z,84.50
2022-11-10T19:59:54.270Z,84.30
2022-11-10T20:03:15.255Z,84.00
2022-11-10T20:06:35.920Z,84.60
2022-11-10T20:09:56.359Z,84.50
2022-11-10T20:13:19.148Z,84.50
2022-11-10T20:16:39.896Z,84.60
2022-11-10T20:20:00.542Z,85.00
2022-11-10T20:23:21.320Z,84.50
2022-11-10T20:26:42.135Z,84.40
2022-11-10T20:30:02.783Z,84.20
2022-11-10T20:33:23.848Z,85.10
2022-11-10T20:36:45.062Z,85.20
2022-11-10T20:40:37.769Z,84.80
2022-11-10T20:43:48.711Z,84.90
2022-11-10T20:47:09.591Z,84.70
2022-11-10T20:50:30.326Z,85.10
2022-11-10T20:53:51.336Z,84.90
2022-11-10T20:57:12.154Z,84.80
2022-11-10T21:00:33.193Z,84.90
2022-11-10T21:03:54.864Z,84.80
2022-11-10T21:07:15.750Z,85.00
2022-11-10T21:10:36.486Z,84.80
2022-11-10T21:13:59.856Z,84.60
2022-11-10T21:17:20.665Z,84.40
2022-11-10T21:20:41.173Z,85.50
2022-11-10T21:24:03.473Z,84.20
2022-11-10T21:27:24.434Z,84.10
2022-11-10T21:30:45.738Z,85.10
2022-11-10T21:34:06.655Z,86.20
2022-11-10T21:37:27.385Z,85.30
2022-11-10T21:40:47.983Z,85.40
2022-11-10T21:44:08.880Z,85.40
2022-11-10T21:47:29.492Z,85.10
2022-11-10T21:50:50.374Z,84.90
2022-11-10T21:54:11.133Z,84.80
2022-11-10T21:57:33.171Z,84.10
2022-11-10T22:01:06.372Z,84.60
2022-11-10T22:04:28.062Z,84.80
2022-11-10T22:07:48.534Z,84.70
2022-11-10T22:11:15.978Z,84.10
2022-11-10T22:14:36.789Z,84.10
2022-11-10T22:17:57.782Z,84.00
2022-11-10T22:21:18.839Z,84.10
2022-11-10T22:24:43.094Z,84.20
2022-11-10T22:28:03.722Z,84.30
2022-11-10T22:31:24.188Z,84.40
2022-11-10T22:34:44.639Z,84.20
2022-11-10T22:38:05.993Z,84.10
2022-11-10T22:41:26.301Z,84.00
2022-11-10T22:44:46.824Z,83.60
2022-11-10T22:48:07.207Z,83.60
2022-11-10T22:51:29.530Z,83.40
2022-11-10T22:54:49.986Z,83.70
2022-11-10T22:58:10.531Z,83.80
2022-11-10T23:01:31.199Z,83.50
2022-11-10T23:04:51.693Z,83.50
2022-11-10T23:08:14.691Z,83.70
2022-11-10T23:11:35.363Z,83.90
2022-11-10T23:14:56.021Z,84.20
2022-11-10T23:18:16.518Z,84.30
2022-11-10T23:21:37.051Z,84.60
2022-11-10T23:24:57.759Z,84.40
2022-11-10T23:28:18.435Z,84.20
2022-11-10T23:31:38.853Z,84.10
2022-11-10T23:34:59.448Z,84.10
2022-11-10T23:38:20.163Z,84.30
2022-11-10T23:41:40.585Z,84.10
2022-11-10T23:45:01.015Z,83.60
2022-11-10T23:48:22.193Z,83.80
2022-11-10T23:51:43.027Z,84.80
2022-11-10T23:55:03.796Z,84.30
2022-11-10T23:58:24.797Z,84.20
